Terminal Aerodrome Forecast
Issued by NWS Caribou, ME

Home | Current Version | Previous Version | Text Only | Print | Product List | Glossary On
Versions: 1 2 3 4 5 6 7 8 9 10 11 12 13 14 15 16 17
000
FTUS41 KCAR 172300
TAFCAR
TAF
KCAR 172333Z 1800/1824 VRB03KT P6SM VCSH OVC040
     FM180400 16004KT 6SM -SHRA OVC025
     FM180600 18004KT 5SM -SHRA BR OVC020
     FM181200 28008KT P6SM VCSH OVC025
     FM181400 32012KT P6SM BKN050=

USA.gov is the U.S. government's official web portal to all federal, state and local government web resources and services.